^^
Saratoga-Weather Station Historical Data
Daily Summary for August 17, 2020 Units:  Metric    English   Both
Daily Weekly Monthly Yearly Custom
  High: Low: Average:
Temperature: 25.8 °C 16.3 °C 20.3 °C
Dew Point: 15.9 °C 8.1 °C 13.3 °C
Humidity: 85% 43% 65%
Wind Speed: 19.3km/h 0km/h 3.7km/h
Wind Gust: 20.9km/h - -
Wind- - SSE
Pressure: 1022.4 hPa 1020.0 hPa -
Precipitation: 0.0 mm    
Historical Graphs
 
 
Tabular Data for August 17, 2020
Time Temperature Dew Point Pressure Wind Wind Speed Wind Gust Humidity Rainfall Rate (Hourly) solar
00:00 21.4 °C 15.7 °C 1020.3 hPa West 3.2 km/h 9.7 km/h 70% 0.0 mm 0 W/m2
00:05 21.4 °C 15.7 °C 1020.3 hPa WNW 4.7 km/h 11.3 km/h 70% 0.0 mm 0 W/m2
00:10 21.4 °C 15.9 °C 1020.3 hPa NNW 1.4 km/h 4.8 km/h 71% 0.0 mm 0 W/m2
00:15 21.4 °C 15.9 °C 1020.3 hPa West 1.4 km/h 6.4 km/h 71% 0.0 mm 0 W/m2
00:21 21.3 °C 15.8 °C 1020.3 hPa NW 4.7 km/h 8 km/h 71% 0.0 mm 0 W/m2
00:26 21.3 °C 15.8 °C 1020.3 hPa West 4.7 km/h 9.7 km/h 71% 0.0 mm 0 W/m2
00:31 21.3 °C 15.8 °C 1020.3 hPa WSW 6.4 km/h 9.7 km/h 71% 0.0 mm 0 W/m2
00:36 21.3 °C 15.8 °C 1020.3 hPa NNW 6.4 km/h 12.9 km/h 71% 0.0 mm 0 W/m2
00:41 21.2 °C 15.7 °C 1020.3 hPa West 3.2 km/h 8 km/h 71% 0.0 mm 0 W/m2
00:46 21.2 °C 15.7 °C 1020.3 hPa NW 6.4 km/h 12.9 km/h 71% 0.0 mm 0 W/m2
00:51 21.2 °C 15.7 °C 1020.3 hPa WNW 4.7 km/h 9.7 km/h 71% 0.0 mm 0 W/m2
00:56 21.1 °C 15.6 °C 1020.3 hPa WNW 6.4 km/h 14.5 km/h 71% 0.0 mm 0 W/m2
01:01 21.1 °C 15.6 °C 1020.3 hPa NNW 7.9 km/h 8 km/h 71% 0.0 mm 0 W/m2
01:06 21 °C 15.5 °C 1020.3 hPa SW 1.4 km/h 14.5 km/h 71% 0.0 mm 0 W/m2
01:11 20.9 °C 15.7 °C 1020.3 hPa WSW 6.4 km/h 6.4 km/h 72% 0.0 mm 0 W/m2
01:16 20.9 °C 15.7 °C 1020.7 hPa WNW 4.7 km/h 6.4 km/h 72% 0.0 mm 0 W/m2
01:21 20.8 °C 15.6 °C 1020.7 hPa WNW 3.2 km/h 3.2 km/h 72% 0.0 mm 0 W/m2
01:26 20.7 °C 15.5 °C 1020.7 hPa West 3.2 km/h 9.7 km/h 72% 0.0 mm 0 W/m2
01:31 20.7 °C 15.7 °C 1020.7 hPa NNW 1.4 km/h 3.2 km/h 73% 0.0 mm 0 W/m2
01:36 20.6 °C 15.6 °C 1020.7 hPa WNW 6.4 km/h 6.4 km/h 73% 0.0 mm 0 W/m2
01:41 20.5 °C 15.5 °C 1020.7 hPa WNW 3.2 km/h 6.4 km/h 73% 0.0 mm 0 W/m2
01:46 20.4 °C 15.4 °C 1020.7 hPa WNW 14.3 km/h 14.5 km/h 73% 0.0 mm 0 W/m2
01:51 20.4 °C 15.4 °C 1020.7 hPa NW 1.4 km/h 6.4 km/h 73% 0.0 mm 0 W/m2
01:56 20.4 °C 15.4 °C 1020.7 hPa WNW 4.7 km/h 12.9 km/h 73% 0.0 mm 0 W/m2
02:01 20.3 °C 15.3 °C 1020.7 hPa NNW 6.4 km/h 6.4 km/h 73% 0.0 mm 0 W/m2
02:06 20.2 °C 15.2 °C 1020.7 hPa North 9.7 km/h 9.7 km/h 73% 0.0 mm 0 W/m2
02:11 20.1 °C 15.1 °C 1020.7 hPa NE 4.7 km/h 8 km/h 73% 0.0 mm 0 W/m2
02:16 20.1 °C 15.3 °C 1020.7 hPa NE 1.4 km/h 3.2 km/h 74% 0.0 mm 0 W/m2
02:21 19.9 °C 15.1 °C 1020.7 hPa West 3.2 km/h 12.9 km/h 74% 0.0 mm 0 W/m2
02:26 19.9 °C 15.1 °C 1020.7 hPa Calm   9.7 km/h 74% 0.0 mm 0 W/m2
02:31 19.8 °C 15 °C 1020.7 hPa East 3.2 km/h 12.9 km/h 74% 0.0 mm 0 W/m2
02:36 19.8 °C 15 °C 1020.7 hPa ENE 4.7 km/h 9.7 km/h 74% 0.0 mm 0 W/m2
02:41 19.7 °C 14.9 °C 1020.7 hPa East 3.2 km/h 4.8 km/h 74% 0.0 mm 0 W/m2
02:46 19.6 °C 14.8 °C 1020.7 hPa NNW 1.4 km/h 4.8 km/h 74% 0.0 mm 0 W/m2
02:51 19.5 °C 14.7 °C 1020.7 hPa NE 4.7 km/h 4.8 km/h 74% 0.0 mm 0 W/m2
02:56 19.4 °C 14.6 °C 1020.7 hPa Calm   3.2 km/h 74% 0.0 mm 0 W/m2
03:01 19.3 °C 14.5 °C 1020.7 hPa NW 1.4 km/h 3.2 km/h 74% 0.0 mm 0 W/m2
03:06 19.2 °C 14.5 °C 1021.0 hPa Calm   11.3 km/h 74% 0.0 mm 0 W/m2
03:11 19.2 °C 14.7 °C 1021.0 hPa North 3.2 km/h 6.4 km/h 75% 0.0 mm 0 W/m2
03:16 19.1 °C 14.6 °C 1020.7 hPa ENE 13 km/h 12.9 km/h 75% 0.0 mm 0 W/m2
03:21 19 °C 14.5 °C 1021.0 hPa SSW 1.4 km/h 4.8 km/h 75% 0.0 mm 0 W/m2
03:26 18.9 °C 14.4 °C 1021.0 hPa ENE 4.7 km/h 6.4 km/h 75% 0.0 mm 0 W/m2
03:31 18.8 °C 14.3 °C 1021.0 hPa South 3.2 km/h 8 km/h 75% 0.0 mm 0 W/m2
03:36 18.7 °C 14.2 °C 1021.0 hPa WSW 1.4 km/h 3.2 km/h 75% 0.0 mm 0 W/m2
03:41 18.7 °C 14.2 °C 1021.0 hPa NNE 1.4 km/h 3.2 km/h 75% 0.0 mm 0 W/m2
03:46 18.6 °C 14.1 °C 1021.0 hPa NNW 1.4 km/h 6.4 km/h 75% 0.0 mm 0 W/m2
03:51 18.6 °C 14.1 °C 1021.0 hPa WSW 3.2 km/h 6.4 km/h 75% 0.0 mm 0 W/m2
03:56 18.5 °C 14 °C 1021.0 hPa WNW 3.2 km/h 4.8 km/h 75% 0.0 mm 0 W/m2
04:01 18.4 °C 14.1 °C 1021.0 hPa NNE 1.4 km/h 8 km/h 76% 0.0 mm 0 W/m2
04:06 18.4 °C 14.1 °C 1021.0 hPa NNW 1.4 km/h 8 km/h 76% 0.0 mm 0 W/m2
04:11 18.3 °C 14 °C 1020.7 hPa North 1.4 km/h 4.8 km/h 76% 0.0 mm 0 W/m2
04:16 18.2 °C 13.9 °C 1020.7 hPa WNW 1.4 km/h 6.4 km/h 76% 0.0 mm 0 W/m2
04:21 18.2 °C 13.9 °C 1020.7 hPa Calm   3.2 km/h 76% 0.0 mm 0 W/m2
04:26 18.1 °C 13.8 °C 1020.7 hPa NNW 3.2 km/h 3.2 km/h 76% 0.0 mm 0 W/m2
04:32 17.9 °C 13.8 °C 1020.7 hPa North 1.4 km/h 6.4 km/h 77% 0.0 mm 0 W/m2
04:37 17.9 °C 13.8 °C 1020.7 hPa WNW 6.4 km/h 11.3 km/h 77% 0.0 mm 0 W/m2
04:42 17.9 °C 13.8 °C 1020.7 hPa ENE 6.4 km/h 8 km/h 77% 0.0 mm 0 W/m2
04:47 17.8 °C 13.7 °C 1020.7 hPa SE 3.2 km/h 9.7 km/h 77% 0.0 mm 0 W/m2
04:52 17.7 °C 13.8 °C 1020.7 hPa SSW 7.9 km/h 8 km/h 78% 0.0 mm 0 W/m2
04:57 17.7 °C 13.8 °C 1021.0 hPa ESE 1.4 km/h 3.2 km/h 78% 0.0 mm 0 W/m2
05:02 17.6 °C 13.7 °C 1021.0 hPa North 7.9 km/h 8 km/h 78% 0.0 mm 0 W/m2
05:07 17.5 °C 13.6 °C 1021.0 hPa NW 1.4 km/h 9.7 km/h 78% 0.0 mm 0 W/m2
05:12 17.4 °C 13.5 °C 1021.0 hPa Calm   1.6 km/h 78% 0.0 mm 0 W/m2
05:17 17.3 °C 13.6 °C 1021.0 hPa SSW 3.2 km/h 3.2 km/h 79% 0.0 mm 0 W/m2
05:23 17.2 °C 13.7 °C 1021.0 hPa NNW 1.4 km/h 4.8 km/h 80% 0.0 mm 0 W/m2
05:28 17.1 °C 13.6 °C 1021.0 hPa NNE 6.4 km/h 6.4 km/h 80% 0.0 mm 0 W/m2
05:33 17.1 °C 13.6 °C 1021.0 hPa SSE 3.2 km/h 3.2 km/h 80% 0.0 mm 0 W/m2
05:38 17 °C 13.7 °C 1021.0 hPa Calm   4.8 km/h 81% 0.0 mm 0 W/m2
05:43 16.9 °C 13.6 °C 1021.0 hPa WSW 4.7 km/h 4.8 km/h 81% 0.0 mm 0 W/m2
05:48 16.9 °C 13.6 °C 1021.0 hPa West 1.4 km/h 3.2 km/h 81% 0.0 mm 0 W/m2
05:53 16.8 °C 13.5 °C 1021.3 hPa ENE 1.4 km/h 4.8 km/h 81% 0.0 mm 0 W/m2
05:58 16.8 °C 13.7 °C 1021.3 hPa NW 1.4 km/h 6.4 km/h 82% 0.0 mm 0 W/m2
06:03 16.7 °C 13.6 °C 1021.3 hPa WNW 4.7 km/h 4.8 km/h 82% 0.0 mm 0 W/m2
06:08 16.7 °C 13.6 °C 1021.3 hPa NNW 1.4 km/h 3.2 km/h 82% 0.0 mm 0 W/m2
06:13 16.7 °C 13.6 °C 1021.3 hPa West 3.2 km/h 4.8 km/h 82% 0.0 mm 0 W/m2
06:18 16.6 °C 13.7 °C 1021.3 hPa WNW 3.2 km/h 3.2 km/h 83% 0.0 mm 0 W/m2
06:23 16.6 °C 13.7 °C 1021.3 hPa Calm   4.8 km/h 83% 0.0 mm 0 W/m2
06:28 16.6 °C 13.7 °C 1021.3 hPa North 1.4 km/h 1.6 km/h 83% 0.0 mm 0 W/m2
06:33 16.5 °C 13.6 °C 1021.7 hPa ESE 7.9 km/h 9.7 km/h 83% 0.0 mm 0 W/m2
06:38 16.5 °C 13.6 °C 1021.7 hPa NE 1.4 km/h 3.2 km/h 83% 0.0 mm 0 W/m2
06:43 16.5 °C 13.8 °C 1021.7 hPa West 6.4 km/h 6.4 km/h 84% 0.0 mm 0 W/m2
06:48 16.4 °C 13.7 °C 1021.7 hPa ENE 6.4 km/h 9.7 km/h 84% 0.0 mm 0 W/m2
06:53 16.4 °C 13.7 °C 1021.7 hPa North 1.4 km/h 11.3 km/h 84% 0.0 mm 0 W/m2
06:58 16.4 °C 13.7 °C 1021.7 hPa NNW 3.2 km/h 4.8 km/h 84% 0.0 mm 0 W/m2
07:03 16.4 °C 13.7 °C 1022.0 hPa WNW 4.7 km/h 8 km/h 84% 0.0 mm 0 W/m2
07:08 16.3 °C 13.6 °C 1021.7 hPa Calm   4.8 km/h 84% 0.0 mm 0 W/m2
07:13 16.3 °C 13.6 °C 1021.7 hPa NE 3.2 km/h 3.2 km/h 84% 0.0 mm 0 W/m2
07:18 16.3 °C 13.8 °C 1021.7 hPa Calm   6.4 km/h 85% 0.0 mm 5 W/m2
07:23 16.3 °C 13.8 °C 1022.0 hPa WNW 4.7 km/h 4.8 km/h 85% 0.0 mm 9 W/m2
07:29 16.3 °C 13.8 °C 1022.0 hPa ENE 3.2 km/h 9.7 km/h 85% 0.0 mm 11 W/m2
07:34 16.3 °C 13.8 °C 1022.0 hPa North 1.4 km/h 9.7 km/h 85% 0.0 mm 12 W/m2
07:39 16.4 °C 13.9 °C 1022.0 hPa WNW 3.2 km/h 8 km/h 85% 0.0 mm 16 W/m2
07:44 16.4 °C 13.7 °C 1022.0 hPa North 9.7 km/h 14.5 km/h 84% 0.0 mm 18 W/m2
07:49 16.4 °C 13.7 °C 1022.0 hPa West 1.4 km/h 4.8 km/h 84% 0.0 mm 21 W/m2
07:54 16.4 °C 13.7 °C 1022.0 hPa ESE 4.7 km/h 14.5 km/h 84% 0.0 mm 23 W/m2
07:59 16.5 °C 13.8 °C 1022.0 hPa SW 6.4 km/h 8 km/h 84% 0.0 mm 25 W/m2
08:04 16.6 °C 13.9 °C 1022.0 hPa East 3.2 km/h 14.5 km/h 84% 0.0 mm 26 W/m2
08:09 16.6 °C 13.7 °C 1022.0 hPa East 1.4 km/h 4.8 km/h 83% 0.0 mm 28 W/m2
08:14 16.6 °C 13.7 °C 1022.0 hPa SSW 1.4 km/h 4.8 km/h 83% 0.0 mm 30 W/m2
08:19 16.6 °C 13.7 °C 1022.0 hPa North 4.7 km/h 6.4 km/h 83% 0.0 mm 33 W/m2
08:24 16.7 °C 13.8 °C 1022.0 hPa NW 1.4 km/h 3.2 km/h 83% 0.0 mm 44 W/m2
08:29 16.7 °C 13.8 °C 1022.0 hPa East 6.4 km/h 9.7 km/h 83% 0.0 mm 69 W/m2
08:34 16.7 °C 13.8 °C 1022.4 hPa WNW 1.4 km/h 4.8 km/h 83% 0.0 mm 84 W/m2
08:39 16.7 °C 13.6 °C 1022.0 hPa WSW 4.7 km/h 4.8 km/h 82% 0.0 mm 95 W/m2
08:45 16.8 °C 13.7 °C 1022.4 hPa ESE 4.7 km/h 6.4 km/h 82% 0.0 mm 51 W/m2
08:50 16.8 °C 13.7 °C 1022.4 hPa WNW 3.2 km/h 4.8 km/h 82% 0.0 mm 47 W/m2
08:55 16.8 °C 13.5 °C 1022.4 hPa North 1.4 km/h 4.8 km/h 81% 0.0 mm 137 W/m2
09:00 16.9 °C 13.6 °C 1022.4 hPa West 3.2 km/h 16.1 km/h 81% 0.0 mm 153 W/m2
09:05 17 °C 13.7 °C 1022.4 hPa WNW 4.7 km/h 9.7 km/h 81% 0.0 mm 165 W/m2
09:10 17.1 °C 13.6 °C 1022.4 hPa ESE 11.1 km/h 11.3 km/h 80% 0.0 mm 179 W/m2
09:15 17.2 °C 13.7 °C 1022.4 hPa SE 3.2 km/h 8 km/h 80% 0.0 mm 130 W/m2
09:20 17.3 °C 13.6 °C 1022.4 hPa NNW 4.7 km/h 9.7 km/h 79% 0.0 mm 54 W/m2
09:25 17.4 °C 13.7 °C 1022.4 hPa ESE 1.4 km/h 6.4 km/h 79% 0.0 mm 54 W/m2
09:30 17.7 °C 13.8 °C 1022.4 hPa NE 3.2 km/h 11.3 km/h 78% 0.0 mm 54 W/m2
09:35 17.9 °C 13.8 °C 1022.4 hPa ESE 4.7 km/h 8 km/h 77% 0.0 mm 56 W/m2
09:40 18 °C 13.7 °C 1022.4 hPa East 4.7 km/h 12.9 km/h 76% 0.0 mm 56 W/m2
09:45 18.1 °C 13.8 °C 1022.4 hPa SE 4.7 km/h 8 km/h 76% 0.0 mm 56 W/m2
09:51 18.3 °C 14 °C 1022.4 hPa East 4.7 km/h 6.4 km/h 76% 0.0 mm 58 W/m2
09:56 18.4 °C 13.7 °C 1022.4 hPa NW 3.2 km/h 8 km/h 74% 0.0 mm 58 W/m2
10:01 18.5 °C 13.6 °C 1022.4 hPa South 3.2 km/h 12.9 km/h 73% 0.0 mm 58 W/m2
10:06 18.5 °C 13.6 °C 1022.4 hPa Calm   3.2 km/h 73% 0.0 mm 58 W/m2
10:11 18.6 °C 13.7 °C 1022.4 hPa NE 3.2 km/h 9.7 km/h 73% 0.0 mm 60 W/m2
10:16 18.7 °C 13.5 °C 1022.4 hPa SE 3.2 km/h 6.4 km/h 72% 0.0 mm 62 W/m2
10:21 18.8 °C 13.6 °C 1022.4 hPa SE 4.7 km/h 12.9 km/h 72% 0.0 mm 62 W/m2
10:26 18.8 °C 13.6 °C 1022.4 hPa NW 1.4 km/h 4.8 km/h 72% 0.0 mm 62 W/m2
10:31 18.9 °C 13.7 °C 1022.4 hPa North 1.4 km/h 4.8 km/h 72% 0.0 mm 62 W/m2
10:36 19.2 °C 13.8 °C 1022.4 hPa East 6.4 km/h 17.7 km/h 71% 0.0 mm 63 W/m2
10:41 19.3 °C 13.7 °C 1022.4 hPa East 11.1 km/h 19.3 km/h 70% 0.0 mm 63 W/m2
10:46 19.3 °C 13.7 °C 1022.4 hPa ENE 6.4 km/h 12.9 km/h 70% 0.0 mm 63 W/m2
10:51 19.3 °C 13.7 °C 1022.4 hPa WNW 3.2 km/h 8 km/h 70% 0.0 mm 63 W/m2
10:56 19.4 °C 13.8 °C 1022.4 hPa ENE 3.2 km/h 16.1 km/h 70% 0.0 mm 65 W/m2
11:01 19.5 °C 13.7 °C 1022.4 hPa SSW 3.2 km/h 9.7 km/h 69% 0.0 mm 67 W/m2
11:06 19.6 °C 13.8 °C 1022.4 hPa NW 3.2 km/h 8 km/h 69% 0.0 mm 69 W/m2
11:11 19.7 °C 13.9 °C 1022.4 hPa North 1.4 km/h 4.8 km/h 69% 0.0 mm 72 W/m2
11:16 19.8 °C 13.7 °C 1022.4 hPa West 3.2 km/h 8 km/h 68% 0.0 mm 74 W/m2
11:21 19.9 °C 13.8 °C 1022.4 hPa East 6.4 km/h 8 km/h 68% 0.0 mm 76 W/m2
11:26 20.1 °C 14 °C 1022.4 hPa North 9.7 km/h 19.3 km/h 68% 0.0 mm 77 W/m2
11:31 20.2 °C 13.9 °C 1022.4 hPa East 4.7 km/h 9.7 km/h 67% 0.0 mm 81 W/m2
11:36 20.3 °C 13.7 °C 1022.4 hPa East 1.4 km/h 6.4 km/h 66% 0.0 mm 83 W/m2
11:41 20.6 °C 14 °C 1022.4 hPa NE 4.7 km/h 11.3 km/h 66% 0.0 mm 188 W/m2
11:46 20.8 °C 14 °C 1022.4 hPa SE 3.2 km/h 16.1 km/h 65% 0.0 mm 531 W/m2
11:51 20.9 °C 14.1 °C 1022.4 hPa East 9.7 km/h 9.7 km/h 65% 0.0 mm 555 W/m2
11:56 21.1 °C 14 °C 1022.4 hPa East 4.7 km/h 16.1 km/h 64% 0.0 mm 559 W/m2
12:01 21.3 °C 14.2 °C 1022.0 hPa NE 9.7 km/h 9.7 km/h 64% 0.0 mm 564 W/m2
12:06 21.4 °C 14.1 °C 1022.4 hPa SSW 1.4 km/h 12.9 km/h 63% 0.0 mm 573 W/m2
12:12 21.6 °C 14.3 °C 1022.0 hPa East 6.4 km/h 9.7 km/h 63% 0.0 mm 580 W/m2
12:17 21.8 °C 14.2 °C 1022.0 hPa NE 4.7 km/h 4.8 km/h 62% 0.0 mm 584 W/m2
12:22 21.9 °C 14.3 °C 1022.0 hPa SSE 3.2 km/h 12.9 km/h 62% 0.0 mm 589 W/m2
12:27 22 °C 14.1 °C 1021.7 hPa ENE 4.7 km/h 9.7 km/h 61% 0.0 mm 596 W/m2
12:32 22.2 °C 14.1 °C 1022.0 hPa ENE 3.2 km/h 4.8 km/h 60% 0.0 mm 596 W/m2
12:37 22.3 °C 14.2 °C 1022.0 hPa SE 4.7 km/h 11.3 km/h 60% 0.0 mm 598 W/m2
12:42 22.5 °C 14.3 °C 1022.0 hPa NNE 1.4 km/h 9.7 km/h 60% 0.0 mm 598 W/m2
12:47 22.6 °C 14.2 °C 1021.7 hPa SSE 1.4 km/h 3.2 km/h 59% 0.0 mm 603 W/m2
12:52 22.8 °C 14.1 °C 1021.7 hPa ESE 4.7 km/h 6.4 km/h 58% 0.0 mm 621 W/m2
12:57 22.9 °C 14.2 °C 1021.7 hPa East 1.4 km/h 3.2 km/h 58% 0.0 mm 628 W/m2
13:02 23.1 °C 14.1 °C 1021.7 hPa SE 6.4 km/h 11.3 km/h 57% 0.0 mm 633 W/m2
13:07 23.1 °C 14.4 °C 1021.7 hPa Calm   6.4 km/h 58% 0.0 mm 635 W/m2
13:12 23.3 °C 14.3 °C 1021.7 hPa NE 3.2 km/h 9.7 km/h 57% 0.0 mm 640 W/m2
13:17 23.5 °C 14.2 °C 1021.7 hPa SE 3.2 km/h 6.4 km/h 56% 0.0 mm 647 W/m2
13:22 23.6 °C 14.3 °C 1021.3 hPa WNW 3.2 km/h 4.8 km/h 56% 0.0 mm 647 W/m2
13:27 23.8 °C 14.2 °C 1021.7 hPa ENE 1.4 km/h 4.8 km/h 55% 0.0 mm 650 W/m2
13:32 23.8 °C 13.9 °C 1021.7 hPa ENE 11.1 km/h 17.7 km/h 54% 0.0 mm 656 W/m2
13:37 23.8 °C 14.2 °C 1021.3 hPa NE 4.7 km/h 9.7 km/h 55% 0.0 mm 659 W/m2
13:42 23.8 °C 14.2 °C 1021.3 hPa East 3.2 km/h 17.7 km/h 55% 0.0 mm 654 W/m2
13:47 23.8 °C 13.9 °C 1021.3 hPa NW 6.4 km/h 8 km/h 54% 0.0 mm 654 W/m2
13:52 23.9 °C 13.7 °C 1021.3 hPa South 1.4 km/h 16.1 km/h 53% 0.0 mm 652 W/m2
13:57 24 °C 13.8 °C 1021.3 hPa WNW 1.4 km/h 1.6 km/h 53% 0.0 mm 652 W/m2
14:02 24.2 °C 14 °C 1021.7 hPa SW 3.2 km/h 14.5 km/h 53% 0.0 mm 654 W/m2
14:07 24.2 °C 13.7 °C 1021.3 hPa SSE 7.9 km/h 8 km/h 52% 0.0 mm 650 W/m2
14:12 24.3 °C 14.1 °C 1021.3 hPa ENE 7.9 km/h 8 km/h 53% 0.0 mm 654 W/m2
14:17 24.5 °C 14 °C 1021.3 hPa NE 7.9 km/h 16.1 km/h 52% 0.0 mm 650 W/m2
14:22 24.6 °C 13.8 °C 1021.3 hPa NE 4.7 km/h 11.3 km/h 51% 0.0 mm 647 W/m2
14:27 24.6 °C 13.8 °C 1021.3 hPa ENE 3.2 km/h 6.4 km/h 51% 0.0 mm 640 W/m2
14:32 24.5 °C 14 °C 1021.3 hPa NW 1.4 km/h 12.9 km/h 52% 0.0 mm 638 W/m2
14:37 24.7 °C 13.6 °C 1021.3 hPa WSW 3.2 km/h 4.8 km/h 50% 0.0 mm 638 W/m2
14:42 24.7 °C 13.6 °C 1021.3 hPa NE 4.7 km/h 8 km/h 50% 0.0 mm 635 W/m2
14:47 24.6 °C 13.8 °C 1021.0 hPa NNW 4.7 km/h 11.3 km/h 51% 0.0 mm 631 W/m2
14:52 24.8 °C 14 °C 1021.0 hPa NNW 1.4 km/h 3.2 km/h 51% 0.0 mm 624 W/m2
14:57 24.9 °C 13.8 °C 1021.0 hPa NE 6.4 km/h 14.5 km/h 50% 0.0 mm 619 W/m2
15:02 25.1 °C 13.6 °C 1021.0 hPa ENE 6.4 km/h 8 km/h 49% 0.0 mm 617 W/m2
15:07 25.2 °C 13.7 °C 1021.0 hPa NNW 4.7 km/h 14.5 km/h 49% 0.0 mm 608 W/m2
15:12 25.1 °C 13.6 °C 1021.0 hPa NNE 1.4 km/h 8 km/h 49% 0.0 mm 603 W/m2
15:17 25.1 °C 13.9 °C 1020.7 hPa NNE 3.2 km/h 9.7 km/h 50% 0.0 mm 596 W/m2
15:27 25.2 °C 13.7 °C 1020.7 hPa NW 1.4 km/h 6.4 km/h 49% 0.0 mm 584 W/m2
15:32 25.3 °C 13.5 °C 1020.7 hPa North 19.3 km/h 19.3 km/h 48% 0.0 mm 580 W/m2
15:37 25.3 °C 13.5 °C 1020.7 hPa ESE 4.7 km/h 8 km/h 48% 0.0 mm 577 W/m2
15:42 25.3 °C 13.8 °C 1020.7 hPa ESE 4.7 km/h 17.7 km/h 49% 0.0 mm 566 W/m2
15:47 25.3 °C 13.8 °C 1020.7 hPa North 4.7 km/h 8 km/h 49% 0.0 mm 557 W/m2
15:52 25.6 °C 13.8 °C 1020.7 hPa ESE 6.4 km/h 6.4 km/h 48% 0.0 mm 548 W/m2
15:57 25.6 °C 13.5 °C 1020.7 hPa East 6.4 km/h 9.7 km/h 47% 0.0 mm 540 W/m2
16:02 25.7 °C 13.5 °C 1020.7 hPa East 6.4 km/h 8 km/h 47% 0.0 mm 534 W/m2
16:07 25.8 °C 13.6 °C 1020.7 hPa Calm   9.7 km/h 47% 0.0 mm 526 W/m2
16:12 25.7 °C 13.2 °C 1020.3 hPa NE 6.4 km/h 16.1 km/h 46% 0.0 mm 515 W/m2
16:17 25.3 °C 12.8 °C 1020.3 hPa NE 7.9 km/h 16.1 km/h 46% 0.0 mm 499 W/m2
16:23 25.3 °C 12.8 °C 1020.3 hPa ESE 6.4 km/h 14.5 km/h 46% 0.0 mm 489 W/m2
16:28 25.3 °C 12.8 °C 1020.3 hPa ENE 7.9 km/h 12.9 km/h 46% 0.0 mm 476 W/m2
16:33 25.2 °C 12.8 °C 1020.3 hPa NE 1.4 km/h 4.8 km/h 46% 0.0 mm 466 W/m2
16:38 25.2 °C 12.4 °C 1020.3 hPa ESE 4.7 km/h 20.9 km/h 45% 0.0 mm 445 W/m2
16:43 25.3 °C 12.5 °C 1020.3 hPa ESE 4.7 km/h 9.7 km/h 45% 0.0 mm 431 W/m2
17:01 25.6 °C 12.1 °C 1020.0 hPa NE 4.7 km/h 9.7 km/h 43% 0.0 mm 394 W/m2
17:06 25.6 °C 12.1 °C 1020.0 hPa ESE 4.7 km/h 12.9 km/h 43% 0.0 mm 373 W/m2
17:11 25.5 °C 12 °C 1020.0 hPa East 4.7 km/h 9.7 km/h 43% 0.0 mm 376 W/m2
17:21 25.2 °C 12.1 °C 1020.0 hPa NNE 1.4 km/h 9.7 km/h 44% 0.0 mm 343 W/m2
17:26 25.4 °C 11.9 °C 1020.0 hPa WNW 3.2 km/h 4.8 km/h 43% 0.0 mm 329 W/m2
17:31 25.4 °C 12.3 °C 1020.0 hPa East 6.4 km/h 8 km/h 44% 0.0 mm 318 W/m2
17:36 25.3 °C 11.8 °C 1020.0 hPa ESE 3.2 km/h 14.5 km/h 43% 0.0 mm 279 W/m2
17:41 25.2 °C 12.1 °C 1020.0 hPa West 6.4 km/h 14.5 km/h 44% 0.0 mm 278 W/m2
17:46 25 °C 11.9 °C 1020.0 hPa ESE 4.7 km/h 11.3 km/h 44% 0.0 mm 276 W/m2
17:51 24.8 °C 12.1 °C 1020.0 hPa NE 4.7 km/h 14.5 km/h 45% 0.0 mm 178 W/m2
17:56 24.7 °C 12 °C 1020.0 hPa SE 1.4 km/h 8 km/h 45% 0.0 mm 239 W/m2
18:01 24.7 °C 12.3 °C 1020.0 hPa SE 4.7 km/h 12.9 km/h 46% 0.0 mm 104 W/m2
18:06 24.7 °C 12.6 °C 1020.0 hPa NE 6.4 km/h 19.3 km/h 47% 0.0 mm 214 W/m2
18:11 24.6 °C 13.2 °C 1020.0 hPa East 3.2 km/h 14.5 km/h 49% 0.0 mm 202 W/m2
18:16 24.5 °C 13.7 °C 1020.0 hPa ESE 4.7 km/h 4.8 km/h 51% 0.0 mm 186 W/m2
18:21 24.3 °C 13.5 °C 1020.0 hPa ESE 1.4 km/h 9.7 km/h 51% 0.0 mm 169 W/m2
18:26 24.2 °C 13.4 °C 1020.0 hPa East 1.4 km/h 6.4 km/h 51% 0.0 mm 155 W/m2
18:31 23.9 °C 13.1 °C 1020.0 hPa East 3.2 km/h 6.4 km/h 51% 0.0 mm 141 W/m2
18:36 23.8 °C 13.4 °C 1020.0 hPa Calm   8 km/h 52% 0.0 mm 123 W/m2
18:41 23.6 °C 13.2 °C 1020.0 hPa ENE 1.4 km/h 8 km/h 52% 0.0 mm 111 W/m2
18:46 23.5 °C 13.4 °C 1020.0 hPa ENE 1.4 km/h 3.2 km/h 53% 0.0 mm 95 W/m2
18:51 23.3 °C 13.2 °C 1020.0 hPa East 3.2 km/h 4.8 km/h 53% 0.0 mm 42 W/m2
18:56 23.1 °C 13.3 °C 1020.0 hPa East 1.4 km/h 6.4 km/h 54% 0.0 mm 39 W/m2
19:01 22.8 °C 13 °C 1020.0 hPa East 3.2 km/h 9.7 km/h 54% 0.0 mm 35 W/m2
19:06 22.5 °C 13 °C 1020.0 hPa East 1.4 km/h 6.4 km/h 55% 0.0 mm 32 W/m2
19:11 22.3 °C 12.8 °C 1020.0 hPa East 1.4 km/h 8 km/h 55% 0.0 mm 28 W/m2
19:16 22.1 °C 12.9 °C 1020.3 hPa ENE 1.4 km/h 4.8 km/h 56% 0.0 mm 25 W/m2
19:21 21.9 °C 12.7 °C 1020.3 hPa NE 4.7 km/h 4.8 km/h 56% 0.0 mm 21 W/m2
19:26 21.8 °C 12.9 °C 1020.3 hPa ENE 4.7 km/h 6.4 km/h 57% 0.0 mm 16 W/m2
19:31 21.7 °C 13.1 °C 1020.3 hPa NE 1.4 km/h 3.2 km/h 58% 0.0 mm 12 W/m2
19:36 21.4 °C 12.8 °C 1020.3 hPa East 6.4 km/h 12.9 km/h 58% 0.0 mm 9 W/m2
19:41 21.3 °C 13 °C 1020.3 hPa ENE 3.2 km/h 6.4 km/h 59% 0.0 mm 5 W/m2
19:47 21.1 °C 12.8 °C 1020.3 hPa East 3.2 km/h 4.8 km/h 59% 0.0 mm 0 W/m2
19:52 20.9 °C 12.8 °C 1020.7 hPa East 1.4 km/h 3.2 km/h 60% 0.0 mm 0 W/m2
19:57 20.7 °C 12.9 °C 1020.7 hPa ENE 1.4 km/h 4.8 km/h 61% 0.0 mm 0 W/m2
20:02 20.6 °C 12.6 °C 1020.7 hPa ENE 3.2 km/h 4.8 km/h 60% 0.0 mm 0 W/m2
20:07 20.5 °C 12.5 °C 1020.7 hPa ENE 3.2 km/h 9.7 km/h 60% 0.0 mm 0 W/m2
20:12 20.4 °C 12.4 °C 1020.7 hPa SE 1.4 km/h 6.4 km/h 60% 0.0 mm 0 W/m2
20:17 20.3 °C 12.3 °C 1020.7 hPa NE 1.4 km/h 8 km/h 60% 0.0 mm 0 W/m2
20:22 20.3 °C 12.5 °C 1021.0 hPa East 1.4 km/h 3.2 km/h 61% 0.0 mm 0 W/m2
20:27 20.1 °C 12.3 °C 1021.0 hPa SSE 1.4 km/h 8 km/h 61% 0.0 mm 0 W/m2
20:32 19.9 °C 12.2 °C 1021.0 hPa East 4.7 km/h 4.8 km/h 61% 0.0 mm 0 W/m2
20:37 19.7 °C 12 °C 1021.0 hPa East 1.4 km/h 6.4 km/h 61% 0.0 mm 0 W/m2
20:42 19.7 °C 12 °C 1021.0 hPa WNW 1.4 km/h 6.4 km/h 61% 0.0 mm 0 W/m2
20:47 19.6 °C 11.9 °C 1021.0 hPa Calm   6.4 km/h 61% 0.0 mm 0 W/m2
20:52 19.4 °C 11.9 °C 1021.3 hPa Calm   4.8 km/h 62% 0.0 mm 0 W/m2
20:57 19.3 °C 11.8 °C 1021.3 hPa East 1.4 km/h 6.4 km/h 62% 0.0 mm 0 W/m2
21:02 19.3 °C 11.8 °C 1021.3 hPa East 3.2 km/h 14.5 km/h 62% 0.0 mm 0 W/m2
21:07 19.2 °C 11.7 °C 1021.3 hPa NNE 1.4 km/h 6.4 km/h 62% 0.0 mm 0 W/m2
21:12 19.1 °C 11.9 °C 1021.3 hPa Calm   14.5 km/h 63% 0.0 mm 0 W/m2
21:17 19 °C 11.1 °C 1021.3 hPa NNE 6.4 km/h 17.7 km/h 60% 0.0 mm 0 W/m2
21:22 19.1 °C 10.6 °C 1021.3 hPa ENE 7.9 km/h 12.9 km/h 58% 0.0 mm 0 W/m2
21:27 19.1 °C 10.4 °C 1021.3 hPa NNE 4.7 km/h 14.5 km/h 57% 0.0 mm 0 W/m2
21:32 19.1 °C 10.4 °C 1021.3 hPa North 3.2 km/h 6.4 km/h 57% 0.0 mm 0 W/m2
21:37 19.1 °C 10.4 °C 1021.3 hPa ESE 4.7 km/h 11.3 km/h 57% 0.0 mm 0 W/m2
21:42 19 °C 10.3 °C 1021.3 hPa East 11.1 km/h 19.3 km/h 57% 0.0 mm 0 W/m2
21:47 18.9 °C 10.2 °C 1021.3 hPa SE 1.4 km/h 12.9 km/h 57% 0.0 mm 0 W/m2
21:52 18.8 °C 10.1 °C 1021.3 hPa Calm   14.5 km/h 57% 0.0 mm 0 W/m2
21:57 18.8 °C 10.1 °C 1021.3 hPa ESE 3.2 km/h 4.8 km/h 57% 0.0 mm 0 W/m2
22:02 18.7 °C 10.3 °C 1021.3 hPa East 3.2 km/h 14.5 km/h 58% 0.0 mm 0 W/m2
22:07 18.6 °C 10.2 °C 1021.3 hPa East 3.2 km/h 9.7 km/h 58% 0.0 mm 0 W/m2
22:12 18.4 °C 10 °C 1021.3 hPa SE 3.2 km/h 11.3 km/h 58% 0.0 mm 0 W/m2
22:17 18.3 °C 9.6 °C 1021.7 hPa East 3.2 km/h 6.4 km/h 57% 0.0 mm 0 W/m2
22:22 18.3 °C 9.6 °C 1021.7 hPa ENE 3.2 km/h 11.3 km/h 57% 0.0 mm 0 W/m2
22:27 18.3 °C 9.4 °C 1021.7 hPa ESE 3.2 km/h 11.3 km/h 56% 0.0 mm 0 W/m2
22:32 18.2 °C 9.5 °C 1021.7 hPa East 3.2 km/h 12.9 km/h 57% 0.0 mm 0 W/m2
22:37 18.1 °C 9.4 °C 1021.7 hPa ESE 6.4 km/h 12.9 km/h 57% 0.0 mm 0 W/m2
22:42 18.1 °C 9.4 °C 1021.7 hPa SE 3.2 km/h 8 km/h 57% 0.0 mm 0 W/m2
22:47 17.9 °C 9.5 °C 1021.7 hPa ESE 6.4 km/h 6.4 km/h 58% 0.0 mm 0 W/m2
22:52 17.8 °C 9.2 °C 1021.7 hPa East 3.2 km/h 6.4 km/h 57% 0.0 mm 0 W/m2
22:57 17.8 °C 8.9 °C 1021.7 hPa SE 4.7 km/h 14.5 km/h 56% 0.0 mm 0 W/m2
23:02 17.7 °C 8.8 °C 1021.7 hPa ESE 3.2 km/h 6.4 km/h 56% 0.0 mm 0 W/m2
23:07 17.6 °C 8.7 °C 1021.7 hPa East 3.2 km/h 14.5 km/h 56% 0.0 mm 0 W/m2
23:12 17.5 °C 8.6 °C 1021.7 hPa SSE 4.7 km/h 12.9 km/h 56% 0.0 mm 0 W/m2
23:17 17.4 °C 8.3 °C 1021.7 hPa Calm   6.4 km/h 55% 0.0 mm 0 W/m2
23:23 17.4 °C 8.5 °C 1021.7 hPa NE 4.7 km/h 9.7 km/h 56% 0.0 mm 0 W/m2
23:28 17.3 °C 8.2 °C 1021.7 hPa East 1.4 km/h 8 km/h 55% 0.0 mm 0 W/m2
23:33 17.2 °C 8.3 °C 1021.7 hPa SE 1.4 km/h 6.4 km/h 56% 0.0 mm 0 W/m2
23:38 17.1 °C 8.3 °C 1021.3 hPa ENE 3.2 km/h 6.4 km/h 56% 0.0 mm 0 W/m2
23:43 17 °C 8.2 °C 1021.3 hPa ENE 1.4 km/h 4.8 km/h 56% 0.0 mm 0 W/m2
23:48 16.8 °C 8.2 °C 1021.3 hPa Calm   3.2 km/h 57% 0.0 mm 0 W/m2
23:53 16.7 °C 8.1 °C 1021.3 hPa Calm   3.2 km/h 57% 0.0 mm 0 W/m2
23:58 16.6 °C 8.3 °C 1021.3 hPa ENE 1.4 km/h 3.2 km/h 58% 0.0 mm 0 W/m2
Juneau County Weather
Compliments of Weather Underground - 4 mb